Time;durP1;ratioP1;P1;durP2;ratioP2;P2;SDS_P1;SDS_P2;PMS_P1;PMS_P2;Temp;Humidity;BMP_temperature;BMP_pressure;BME280_temperature;BME280_humidity;BME280_pressure;Samples;Min_cycle;Max_cycle;Signal;HPM_P1;HPM_P2
2022/02/25 00:00:19;;;;;;;;;1.00;0.00;;;;;6.05;86.93;101576.06;5080203;28;45640;-86
2022/02/25 00:02:46;;;;;;;;;0.00;0.00;;;;;6.17;86.69;101601.63;5080926;28;45686;-82
2022/02/25 00:05:11;;;;;;;;;2.00;2.00;;;;;6.22;86.63;101612.69;5084387;28;45652;-83
2022/02/25 00:07:36;;;;;;;;;2.25;0.25;;;;;6.19;86.64;101618.88;5065930;28;47085;-87
2022/02/25 00:13:24;;;;;;;;;0.50;0.00;;;;;6.01;86.58;101603.94;5083208;28;45496;-87
2022/02/25 00:15:49;;;;;;;;;0.75;0.75;;;;;6.18;86.99;101645.81;5064755;28;48297;-83
2022/02/25 00:18:15;;;;;;;;;0.50;0.00;;;;;5.90;86.41;101590.47;5084280;28;45608;-85
2022/02/25 00:20:40;;;;;;;;;2.75;0.50;;;;;6.07;86.84;101629.72;5082466;28;45510;-88
2022/02/25 00:23:05;;;;;;;;;0.00;0.00;;;;;6.12;87.00;101633.00;5078501;28;45696;-87
2022/02/25 00:28:52;;;;;;;;;1.75;1.00;;;;;6.15;87.20;101658.94;5077329;28;45854;-83
2022/02/25 00:31:18;;;;;;;;;2.00;2.00;;;;;5.98;87.10;101617.06;5078931;28;45543;-88
2022/02/25 00:33:44;;;;;;;;;0.50;0.00;;;;;6.04;87.31;101635.06;5079571;28;45499;-86
2022/02/25 00:36:09;;;;;;;;;0.00;0.00;;;;;6.14;87.18;101643.38;5083194;28;46250;-86
2022/02/25 00:38:34;;;;;;;;;3.00;0.75;;;;;6.11;87.30;101653.88;5079817;28;46493;-88
2022/02/25 00:41:01;;;;;;;;;0.50;0.50;;;;;6.04;87.13;101645.47;5078501;28;45644;-89
2022/02/25 00:43:26;;;;;;;;;1.00;0.00;;;;;6.14;87.16;101661.59;5060601;28;45591;-89
2022/02/25 00:45:52;;;;;;;;;1.00;0.00;;;;;6.16;87.39;101657.16;5078837;28;45518;-86
2022/02/25 00:48:17;;;;;;;;;0.00;0.00;;;;;6.03;86.97;101654.16;5078100;28;45648;-85
2022/02/25 00:50:43;;;;;;;;;2.00;0.75;;;;;6.01;86.87;101640.34;5079844;28;45589;-88
2022/02/25 00:53:08;;;;;;;;;0.00;0.00;;;;;6.15;86.89;101650.28;5079629;28;45613;-86
2022/02/25 00:58:55;;;;;;;;;1.00;0.00;;;;;6.03;86.90;101643.75;5077118;28;45543;-88
2022/02/25 01:01:22;;;;;;;;;0.25;0.00;;;;;6.11;86.99;101672.06;5080258;28;45723;-87
2022/02/25 01:03:47;;;;;;;;;0.75;0.00;;;;;6.06;87.44;101674.84;5083386;28;45791;-83
2022/02/25 01:06:14;;;;;;;;;0.00;0.00;;;;;6.06;87.65;101687.84;5084233;28;45691;-87
2022/02/25 01:08:40;;;;;;;;;1.75;0.00;;;;;5.97;87.33;101664.78;5086827;28;46198;-83
2022/02/25 01:11:06;;;;;;;;;0.00;0.00;;;;;6.02;87.21;101682.81;5087134;28;45692;-85
2022/02/25 01:13:31;;;;;;;;;0.25;0.00;;;;;6.00;87.14;101684.59;5088061;28;45574;-87
2022/02/25 01:15:57;;;;;;;;;1.00;1.00;;;;;5.96;87.24;101696.03;5086898;28;45616;-85
2022/02/25 01:18:22;;;;;;;;;1.00;0.25;;;;;5.94;87.42;101677.88;5087434;28;45517;-84
2022/02/25 01:20:47;;;;;;;;;1.25;0.00;;;;;5.55;87.17;101620.28;5068439;28;45777;-84
2022/02/25 01:23:13;;;;;;;;;0.25;0.00;;;;;5.54;87.27;101623.78;5086465;28;45564;-82
2022/02/25 01:29:01;;;;;;;;;1.75;1.00;;;;;5.88;87.59;101691.94;5080738;28;45526;-79
2022/02/25 01:31:27;;;;;;;;;1.00;0.00;;;;;5.86;87.13;101687.66;5080755;28;45469;-84
2022/02/25 01:33:52;;;;;;;;;1.00;1.00;;;;;5.71;87.36;101667.41;5079639;28;45566;-88
2022/02/25 01:36:18;;;;;;;;;0.00;0.00;;;;;5.84;87.79;101699.84;5079430;28;45555;-83
2022/02/25 01:38:44;;;;;;;;;1.00;1.00;;;;;5.85;88.29;101709.38;5079615;28;46014;-82
2022/02/25 01:44:31;;;;;;;;;0.00;0.00;;;;;5.72;87.52;101695.91;5079598;28;45514;-81
2022/02/25 01:46:59;;;;;;;;;1.00;0.00;;;;;5.72;87.14;101702.91;5083459;28;46188;-78
2022/02/25 01:49:25;;;;;;;;;1.25;0.50;;;;;5.77;87.77;101714.00;5083187;28;46470;-81
2022/02/25 01:51:58;;;;;;;;;0.75;0.00;;;;;5.71;87.87;101698.59;5079982;28;45645;-80
2022/02/25 01:54:25;;;;;;;;;1.00;0.75;;;;;5.77;87.52;101699.25;5079748;28;45596;-81
2022/02/25 01:56:52;;;;;;;;;2.25;0.50;;;;;5.76;88.04;101694.94;5079691;28;45552;-80
2022/02/25 01:59:18;;;;;;;;;0.75;0.50;;;;;5.67;87.69;101684.81;5078507;28;46381;-82
2022/02/25 02:01:46;;;;;;;;;1.00;1.00;;;;;5.57;87.94;101685.19;5079838;28;45655;-85
2022/02/25 02:04:11;;;;;;;;;1.00;0.50;;;;;5.65;87.65;101689.25;5081182;28;45651;-81
2022/02/25 02:06:37;;;;;;;;;1.00;0.00;;;;;5.73;87.17;101712.38;5084755;28;45553;-84
2022/02/25 02:09:09;;;;;;;;;2.00;0.00;;;;;5.68;87.85;101698.69;5084121;28;45703;-84
2022/02/25 02:14:56;;;;;;;;;0.75;0.00;;;;;5.53;88.00;101697.44;5077949;28;45614;-85
2022/02/25 02:17:22;;;;;;;;;0.00;0.00;;;;;5.60;87.78;101692.91;5078796;28;45676;-85
2022/02/25 02:19:47;;;;;;;;;0.00;0.00;;;;;5.60;87.85;101698.94;5060321;28;48065;-84
2022/02/25 02:22:14;;;;;;;;;1.00;1.00;;;;;5.59;87.99;101701.59;5079989;28;45642;-86
2022/02/25 02:24:40;;;;;;;;;0.00;0.00;;;;;5.52;87.58;101690.53;5080324;28;45507;-87
2022/02/25 02:27:05;;;;;;;;;1.00;0.00;;;;;5.53;88.22;101681.00;5081477;28;46236;-89
2022/02/25 02:29:31;;;;;;;;;1.00;0.00;;;;;5.56;87.84;101692.13;5085446;28;45568;-87
2022/02/25 02:31:57;;;;;;;;;0.50;0.00;;;;;5.56;88.37;101689.53;5083591;28;45435;-85
2022/02/25 02:34:22;;;;;;;;;1.00;0.00;;;;;5.29;87.99;101643.69;5083921;28;45458;-82
2022/02/25 02:36:48;;;;;;;;;1.00;0.00;;;;;5.46;88.17;101682.94;5084265;28;45539;-84
2022/02/25 02:39:14;;;;;;;;;0.75;0.75;;;;;5.53;87.96;101688.78;5086815;28;46318;-84
2022/02/25 02:45:02;;;;;;;;;0.00;0.00;;;;;5.44;88.69;101688.22;5088525;28;45458;-88
2022/02/25 02:47:28;;;;;;;;;1.00;0.00;;;;;5.37;88.41;101675.44;5090697;28;46486;-89
2022/02/25 02:49:53;;;;;;;;;2.00;0.00;;;;;5.40;87.90;101688.34;5087736;28;45602;-85
2022/02/25 02:52:19;;;;;;;;;1.75;0.00;;;;;5.48;88.06;101692.41;5080066;28;45479;-83
2022/02/25 02:54:44;;;;;;;;;1.00;1.00;;;;;5.49;88.49;101694.09;5079565;28;45514;-84
2022/02/25 02:57:09;;;;;;;;;1.00;0.00;;;;;5.49;88.78;101706.25;5082679;28;46216;-81
2022/02/25 02:59:35;;;;;;;;;0.00;0.00;;;;;5.37;88.44;101663.31;5081904;28;45584;-82
2022/02/25 03:02:00;;;;;;;;;0.00;0.00;;;;;5.34;88.29;101657.38;5082662;28;45832;-80
2022/02/25 03:04:26;;;;;;;;;1.00;0.00;;;;;5.45;88.75;101674.28;5085377;28;45610;-83
2022/02/25 03:06:51;;;;;;;;;0.00;0.00;;;;;5.52;88.74;101679.28;5065348;28;45665;-81
2022/02/25 03:09:17;;;;;;;;;0.00;0.00;;;;;5.46;88.38;101672.53;5084787;28;46238;-85
2022/02/25 03:15:05;;;;;;;;;0.00;0.00;;;;;5.52;89.05;101693.13;5094278;28;45621;-78
2022/02/25 03:17:32;;;;;;;;;1.00;0.00;;;;;5.44;88.63;101676.97;5094005;28;45940;-86
2022/02/25 03:19:58;;;;;;;;;0.75;0.00;;;;;5.56;88.58;101707.72;5075896;28;47137;-79
2022/02/25 03:22:25;;;;;;;;;1.50;0.00;;;;;5.54;88.12;101709.53;5094881;28;45528;-83
2022/02/25 03:24:51;;;;;;;;;0.00;0.00;;;;;5.52;88.48;101703.53;5083691;28;45722;-81
2022/02/25 03:27:16;;;;;;;;;2.00;0.00;;;;;5.50;88.35;101694.97;5083860;28;45561;-79
2022/02/25 03:29:42;;;;;;;;;0.00;0.00;;;;;5.47;88.59;101687.25;5085369;28;45466;-80
2022/02/25 03:32:07;;;;;;;;;0.75;0.00;;;;;5.47;88.62;101697.63;5068589;28;45358;-78
2022/02/25 03:34:33;;;;;;;;;0.00;0.00;;;;;5.46;88.43;101698.53;5085597;28;45459;-79
2022/02/25 03:36:58;;;;;;;;;1.00;0.00;;;;;5.43;88.67;101693.44;5077284;28;45461;-81
2022/02/25 03:39:24;;;;;;;;;1.00;0.00;;;;;5.47;88.72;101701.09;5076389;28;45620;-82
2022/02/25 03:45:12;;;;;;;;;0.25;0.25;;;;;5.45;88.45;101709.84;5076803;28;45539;-82
2022/02/25 03:47:38;;;;;;;;;0.00;0.00;;;;;5.45;88.28;101715.88;5078260;28;45545;-81
2022/02/25 03:50:05;;;;;;;;;0.00;0.00;;;;;5.46;89.32;101698.53;5079522;28;45610;-81
2022/02/25 03:52:31;;;;;;;;;1.00;0.00;;;;;5.47;89.06;101714.09;5083433;28;46350;-83
2022/02/25 03:54:57;;;;;;;;;0.00;0.00;;;;;5.48;88.70;101714.94;5103407;27;45194;-81
2022/02/25 04:00:58;;;;;;;;;0.00;0.00;;;;;5.38;88.61;101705.75;5096226;28;45297;-81
2022/02/25 04:03:24;;;;;;;;;0.00;0.00;;;;;5.29;89.01;101701.66;5095570;28;45203;-83
2022/02/25 04:05:49;;;;;;;;;1.25;0.00;;;;;5.34;88.74;101715.41;5093340;28;45573;-81
2022/02/25 04:08:15;;;;;;;;;0.75;0.75;;;;;5.29;88.77;101709.47;5088204;28;46922;-81
2022/02/25 04:10:40;;;;;;;;;0.00;0.00;;;;;5.41;89.01;101742.00;5089356;28;45630;-78
2022/02/25 04:13:05;;;;;;;;;1.00;0.00;;;;;5.39;88.31;101736.88;5089620;28;45598;-80
2022/02/25 04:15:31;;;;;;;;;0.00;0.00;;;;;5.34;88.53;101738.78;5084365;28;45608;-83
2022/02/25 04:17:57;;;;;;;;;0.50;0.00;;;;;5.28;88.63;101725.13;5083340;28;45568;-80
2022/02/25 04:20:22;;;;;;;;;1.25;0.00;;;;;5.24;88.45;101720.88;5063267;28;45522;-80
2022/02/25 04:22:47;;;;;;;;;2.00;1.00;;;;;5.37;88.64;101738.66;5077753;28;45491;-83
2022/02/25 04:25:14;;;;;;;;;0.00;0.00;;;;;5.39;88.56;101744.69;5077328;28;45525;-81
2022/02/25 04:31:01;;;;;;;;;0.25;0.00;;;;;5.40;88.96;101740.31;5076865;28;45730;-81
2022/02/25 04:33:26;;;;;;;;;0.50;0.50;;;;;5.37;88.98;101746.47;5076333;28;45830;-81
2022/02/25 04:35:52;;;;;;;;;0.00;0.00;;;;;5.33;89.10;101752.66;5075880;28;45705;-80
2022/02/25 04:38:17;;;;;;;;;0.50;0.00;;;;;5.35;88.74;101756.03;5075394;28;45642;-82
2022/02/25 04:40:42;;;;;;;;;1.75;0.00;;;;;5.37;88.51;101758.59;5075263;28;46330;-81
2022/02/25 04:43:08;;;;;;;;;0.00;0.00;;;;;5.30;88.63;101755.34;5075565;28;45543;-86
2022/02/25 04:45:34;;;;;;;;;1.00;0.00;;;;;5.38;89.42;101768.09;5075646;28;45535;-83
2022/02/25 04:47:59;;;;;;;;;0.00;0.00;;;;;5.37;88.69;101769.84;5075223;28;46949;-83
2022/02/25 04:50:25;;;;;;;;;1.25;1.00;;;;;5.24;89.04;101742.53;5075681;28;45740;-80
2022/02/25 04:52:50;;;;;;;;;0.00;0.00;;;;;5.17;88.98;101725.44;5076093;28;45554;-82
2022/02/25 04:55:16;;;;;;;;;1.00;0.00;;;;;5.31;88.85;101754.44;5075692;28;45754;-80
2022/02/25 05:01:04;;;;;;;;;1.00;0.00;;;;;5.39;89.19;101764.59;5074866;28;45741;-84
2022/02/25 05:03:29;;;;;;;;;0.00;0.00;;;;;5.44;88.77;101776.56;5077030;28;45457;-82
2022/02/25 05:05:55;;;;;;;;;0.00;0.00;;;;;5.22;89.21;101743.50;5084245;28;45595;-82
2022/02/25 05:08:21;;;;;;;;;0.00;0.00;;;;;5.04;89.38;101709.38;5066291;28;47083;-82
2022/02/25 05:10:46;;;;;;;;;0.00;0.00;;;;;5.21;89.05;101749.56;5084673;28;45567;-82
2022/02/25 05:13:12;;;;;;;;;0.75;0.00;;;;;5.25;89.01;101756.38;5082884;28;45571;-83
2022/02/25 05:21:06;;;;;;;;;0.75;0.25;;;;;5.35;89.00;101789.81;5076602;28;45696;-82
2022/02/25 05:23:32;;;;;;;;;0.50;0.00;;;;;5.26;89.63;101769.31;5058676;28;45566;-81
2022/02/25 05:25:57;;;;;;;;;0.25;0.00;;;;;5.30;89.36;101780.47;5079601;28;45535;-79
2022/02/25 05:28:23;;;;;;;;;0.00;0.00;;;;;5.36;89.80;101790.66;5079475;28;45541;-83
2022/02/25 05:30:48;;;;;;;;;1.00;0.00;;;;;5.28;89.68;101790.06;5082263;28;45922;-80
2022/02/25 05:33:14;;;;;;;;;0.00;0.00;;;;;5.16;89.35;101767.91;5084637;28;45599;-79
2022/02/25 05:35:40;;;;;;;;;1.00;0.00;;;;;5.35;89.19;101792.41;5083280;28;45688;-86
2022/02/25 05:38:05;;;;;;;;;0.75;0.75;;;;;5.34;89.50;101795.94;5083544;28;45832;-82
2022/02/25 05:40:30;;;;;;;;;0.25;0.00;;;;;5.22;89.55;101791.09;5063454;28;46460;-82
2022/02/25 05:46:18;;;;;;;;;0.75;0.00;;;;;5.27;89.80;101788.34;5086393;28;45714;-83
2022/02/25 05:48:43;;;;;;;;;0.00;0.00;;;;;5.27;89.21;101793.56;5088251;28;45550;-84
2022/02/25 05:51:09;;;;;;;;;0.00;0.00;;;;;5.31;89.22;101797.75;5085453;28;46102;-83
2022/02/25 05:53:34;;;;;;;;;0.25;0.00;;;;;5.28;89.00;101792.66;5064766;28;45703;-79
2022/02/25 05:56:00;;;;;;;;;1.00;0.00;;;;;5.33;89.61;101812.41;5079132;28;45636;-83
2022/02/25 06:01:46;;;;;;;;;1.00;0.00;;;;;5.31;89.47;101805.56;5076831;28;46136;-81
2022/02/25 06:04:12;;;;;;;;;0.25;0.00;;;;;5.37;89.56;101816.63;5079976;28;45844;-81
2022/02/25 06:06:37;;;;;;;;;1.00;0.25;;;;;5.37;89.05;101821.81;5081570;28;45562;-80
2022/02/25 06:09:03;;;;;;;;;1.00;0.00;;;;;5.36;88.88;101829.63;5061426;28;47656;-85
2022/02/25 06:11:28;;;;;;;;;0.00;0.00;;;;;5.40;89.67;101854.63;5079190;28;45629;-86
2022/02/25 06:13:54;;;;;;;;;0.00;0.00;;;;;5.38;89.81;101846.91;5079199;28;45582;-81
2022/02/25 06:16:20;;;;;;;;;0.00;0.00;;;;;4.92;89.26;101764.28;5078171;28;45719;-85
2022/02/25 06:18:46;;;;;;;;;0.75;0.00;;;;;5.36;89.66;101837.44;5077959;28;46997;-80
2022/02/25 06:21:12;;;;;;;;;0.00;0.00;;;;;5.34;89.23;101850.50;5077972;28;46048;-82
2022/02/25 06:23:38;;;;;;;;;0.00;0.00;;;;;5.17;89.45;101813.75;5078440;28;45588;-82
2022/02/25 06:26:04;;;;;;;;;0.00;0.00;;;;;5.36;89.50;101853.03;5078264;28;45649;-81
2022/02/25 06:31:51;;;;;;;;;1.75;1.00;;;;;5.33;89.21;101861.78;5081917;28;45548;-86
2022/02/25 06:34:16;;;;;;;;;0.00;0.00;;;;;5.36;89.08;101868.63;5083142;28;45510;-82
2022/02/25 06:36:42;;;;;;;;;0.50;0.00;;;;;5.39;89.40;101877.19;5084275;28;45493;-87
2022/02/25 06:39:08;;;;;;;;;0.00;0.00;;;;;5.39;89.85;101871.16;5081500;28;46442;-84
2022/02/25 06:41:34;;;;;;;;;1.00;0.00;;;;;5.33;89.43;101871.31;5082035;28;45746;-90
2022/02/25 06:43:59;;;;;;;;;0.00;0.00;;;;;5.36;89.74;101877.25;5081227;28;45601;-87
2022/02/25 06:46:55;;;;;;;;;0.75;0.00;;;;;5.10;89.50;101843.41;5082938;28;45613;-86
2022/02/25 06:49:41;;;;;;;;;5.00;0.00;;;;;5.07;89.31;101852.13;5082721;28;45755;-88
2022/02/25 06:52:07;;;;;;;;;0.00;0.00;;;;;4.87;89.45;101822.41;5063510;28;47277;-90
2022/02/25 06:54:39;;;;;;;;;1.00;1.00;;;;;5.35;89.42;101885.09;5082145;28;45553;-85
2022/02/25 06:57:33;;;;;;;;;1.00;0.00;;;;;5.38;89.70;101882.44;5081430;28;45701;-89
2022/02/25 06:59:59;;;;;;;;;1.00;1.00;;;;;5.36;88.93;101882.47;5086481;28;46944;-82
2022/02/25 07:02:24;;;;;;;;;1.00;0.50;;;;;5.24;89.33;101855.97;5087876;28;45485;-86
2022/02/25 07:04:50;;;;;;;;;2.00;1.00;;;;;5.41;89.49;101877.97;5088268;28;45525;-88
2022/02/25 07:07:16;;;;;;;;;0.00;0.00;;;;;5.38;89.78;101872.03;5086156;28;45556;-89
2022/02/25 07:09:41;;;;;;;;;0.00;0.00;;;;;5.45;89.40;101899.56;5085483;28;46710;-89
2022/02/25 07:12:08;;;;;;;;;1.00;0.00;;;;;5.31;89.32;101871.34;5083045;28;46609;-89
2022/02/25 07:14:33;;;;;;;;;0.75;0.50;;;;;5.49;89.06;101903.75;5066025;28;45606;-85
2022/02/25 07:17:15;;;;;;;;;;;;;;;;;;;;;
2022/02/25 07:19:41;;;;;;;;;0.00;0.00;;;;;4.91;89.62;101803.28;5082619;28;74090;-87
2022/02/25 07:22:06;;;;;;;;;0.50;0.25;;;;;5.30;89.61;101872.25;5065314;28;48218;-86
2022/02/25 07:24:31;;;;;;;;;0.50;0.50;;;;;5.41;89.60;101884.91;5085611;28;45648;-85
2022/02/25 07:26:57;;;;;;;;;1.00;0.00;;;;;5.35;89.51;101887.69;5085939;28;45619;-83
2022/02/25 07:32:44;;;;;;;;;0.75;0.50;;;;;5.47;89.54;101903.78;5089618;28;45989;-85
2022/02/25 07:35:12;;;;;;;;;0.25;0.00;;;;;5.48;89.39;101902.06;5077032;28;45543;-86
2022/02/25 07:37:41;;;;;;;;;0.00;0.00;;;;;5.47;89.32;101885.59;5090541;28;45535;-83
2022/02/25 07:40:08;;;;;;;;;1.25;1.00;;;;;5.38;89.54;101872.03;5093386;28;46799;-89
2022/02/25 07:42:35;;;;;;;;;0.50;0.00;;;;;5.49;89.19;101896.81;5091329;28;46185;-82
2022/02/25 07:45:01;;;;;;;;;1.00;0.50;;;;;5.49;89.47;101895.97;5090219;28;45664;-85
2022/02/25 07:47:27;;;;;;;;;2.50;0.00;;;;;5.40;88.80;101878.03;5093231;28;45519;-78
2022/02/25 07:49:54;;;;;;;;;1.75;0.00;;;;;5.53;88.89;101912.31;5095044;28;45932;-86
2022/02/25 07:52:21;;;;;;;;;1.00;0.00;;;;;5.58;88.98;101932.06;5093373;28;46212;-88
2022/02/25 07:54:46;;;;;;;;;0.50;0.50;;;;;5.57;89.23;101921.72;5088231;28;45600;-89
2022/02/25 07:57:14;;;;;;;;;0.00;0.00;;;;;5.48;88.87;101902.91;5085630;28;45577;-78
2022/02/25 08:03:02;;;;;;;;;1.00;0.50;;;;;5.59;89.07;101912.97;5084501;28;45476;-83
2022/02/25 08:05:29;;;;;;;;;2.00;1.00;;;;;5.68;89.17;101920.50;5064120;28;45611;-82
2022/02/25 08:07:57;;;;;;;;;0.50;0.00;;;;;5.83;88.75;101942.63;5084419;28;45751;-89
2022/02/25 08:10:23;;;;;;;;;1.00;0.00;;;;;5.87;89.32;101933.84;5067254;28;46427;-80
2022/02/25 08:12:48;;;;;;;;;2.00;0.00;;;;;5.96;89.30;101940.50;5084138;28;45622;-84
2022/02/25 08:15:15;;;;;;;;;0.00;0.00;;;;;5.95;88.92;101936.19;5084141;28;45674;-82
2022/02/25 08:17:41;;;;;;;;;0.00;0.00;;;;;5.99;89.01;101940.44;5084330;28;45675;-82
2022/02/25 08:20:07;;;;;;;;;1.00;0.50;;;;;6.07;88.74;101951.44;5086879;28;45469;-85
2022/02/25 08:22:34;;;;;;;;;0.00;0.00;;;;;6.11;88.76;101963.44;5087102;28;47071;-79
2022/02/25 08:25:00;;;;;;;;;1.00;1.00;;;;;6.15;89.26;101954.66;5079644;28;45648;-78
2022/02/25 08:27:25;;;;;;;;;1.50;1.00;;;;;6.16;88.13;101965.00;5082980;28;45581;-82
2022/02/25 08:33:13;;;;;;;;;1.00;0.00;;;;;6.25;88.66;101953.47;5082806;28;45494;-83
2022/02/25 08:35:40;;;;;;;;;0.75;0.50;;;;;6.31;88.66;101958.50;5080212;28;45616;-80
2022/02/25 08:38:07;;;;;;;;;4.00;1.00;;;;;6.30;88.23;101946.38;5079410;28;45582;-87
2022/02/25 08:40:33;;;;;;;;;2.00;0.75;;;;;6.24;88.35;101931.81;5058688;28;48321;-85
2022/02/25 08:42:59;;;;;;;;;1.50;1.00;;;;;6.47;87.84;101964.06;5076163;28;45601;-84
2022/02/25 08:45:25;;;;;;;;;4.25;0.00;;;;;6.51;87.74;101956.09;5075345;28;45596;-78
2022/02/25 08:47:50;;;;;;;;;1.50;0.50;;;;;6.58;87.77;101968.03;5056060;28;45883;-78
2022/02/25 08:50:18;;;;;;;;;2.00;1.00;;;;;6.65;87.67;101961.69;5074548;28;45734;-80
2022/02/25 08:52:46;;;;;;;;;3.25;0.75;;;;;6.72;87.46;101977.97;5074294;28;46179;-81
2022/02/25 08:55:12;;;;;;;;;1.00;0.00;;;;;6.77;88.50;101986.47;5075429;28;45881;-78
2022/02/25 08:57:39;;;;;;;;;1.50;1.00;;;;;6.76;88.18;101974.34;5076605;28;45567;-81
2022/02/25 09:03:26;;;;;;;;;1.00;1.00;;;;;6.85;87.59;101987.09;5073210;28;46228;-79
2022/02/25 09:05:52;;;;;;;;;1.25;0.25;;;;;6.93;87.64;101992.88;5055910;28;45640;-77
2022/02/25 09:08:18;;;;;;;;;1.25;0.75;;;;;6.99;87.84;101991.81;5074076;28;45741;-78
2022/02/25 09:10:45;;;;;;;;;3.25;1.50;;;;;7.08;87.54;101999.31;5074082;28;45591;-77
2022/02/25 09:13:11;;;;;;;;;2.00;1.00;;;;;7.13;87.36;102011.28;5074090;28;45924;-79
2022/02/25 09:15:36;;;;;;;;;2.00;1.00;;;;;7.13;87.67;102000.00;5074468;28;45587;-83
2022/02/25 09:18:04;;;;;;;;;1.25;1.00;;;;;7.23;87.47;102006.63;5074685;28;45919;-79
2022/02/25 09:20:29;;;;;;;;;2.00;1.00;;;;;7.28;86.49;102014.28;5074410;28;46613;-86
2022/02/25 09:22:57;;;;;;;;;1.50;1.00;;;;;7.31;87.58;102020.22;5074947;28;45738;-81
2022/02/25 09:25:24;;;;;;;;;3.00;1.00;;;;;7.31;87.63;102022.84;5078002;28;45604;-82
2022/02/25 09:27:49;;;;;;;;;1.75;1.00;;;;;7.16;87.45;101979.06;5077552;28;45881;-79
2022/02/25 09:33:36;;;;;;;;;2.00;1.75;;;;;7.41;87.18;102029.44;5080087;28;46237;-84
2022/02/25 09:36:03;;;;;;;;;2.00;2.00;;;;;7.37;87.85;102020.00;5084434;28;45715;-84
2022/02/25 09:38:28;;;;;;;;;1.00;0.00;;;;;7.31;87.74;102012.41;5079831;28;45580;-85
2022/02/25 09:40:54;;;;;;;;;0.75;0.75;;;;;7.48;87.48;102033.53;5079170;28;45603;-88
2022/02/25 09:43:20;;;;;;;;;3.00;0.00;;;;;7.52;86.92;102045.53;5078068;28;45551;-82
2022/02/25 09:45:45;;;;;;;;;1.00;0.50;;;;;7.54;87.09;102043.75;5078882;28;45840;-81
2022/02/25 09:48:11;;;;;;;;;0.75;0.75;;;;;7.52;86.63;102040.31;5077817;28;45584;-81
2022/02/25 09:50:39;;;;;;;;;1.00;0.00;;;;;7.62;86.78;102053.88;5058693;28;48187;-79
2022/02/25 09:53:04;;;;;;;;;1.25;0.00;;;;;7.65;86.46;102061.63;5077436;28;45661;-80
2022/02/25 09:55:34;;;;;;;;;2.25;0.75;;;;;7.62;86.34;102046.06;5079088;28;45557;-82
2022/02/25 10:04:43;;;;;;;;;1.50;0.00;;;;;7.81;86.72;102064.53;5077967;28;45939;-82
2022/02/25 10:07:25;;;;;;;;;0.00;0.00;;;;;7.73;86.37;102043.06;5078964;28;45421;-82
2022/02/25 10:09:52;;;;;;;;;2.00;1.00;;;;;7.91;86.04;102077.19;5077985;28;45857;-82
2022/02/25 10:12:19;;;;;;;;;1.25;0.25;;;;;7.94;86.12;102087.50;5076952;28;45579;-83
2022/02/25 10:18:11;;;;;;;;;1.00;1.00;;;;;8.02;86.41;102082.00;5076826;28;45792;-84
2022/02/25 10:20:37;;;;;;;;;2.00;1.00;;;;;8.08;85.69;102075.72;5077016;28;45744;-84
2022/02/25 10:23:17;;;;;;;;;1.00;0.00;;;;;8.12;86.04;102082.50;5077324;28;45703;-83
2022/02/25 10:25:42;;;;;;;;;1.75;1.00;;;;;7.97;85.92;102050.88;5077354;28;45936;-83
2022/02/25 10:28:08;;;;;;;;;2.75;0.00;;;;;8.10;85.26;102068.69;5079314;28;45505;-84
2022/02/25 10:34:01;;;;;;;;;1.25;1.00;;;;;8.18;85.26;102069.22;5077333;27;46021;-82
2022/02/25 10:36:37;;;;;;;;;4.00;1.25;;;;;8.16;84.31;102084.94;5076532;28;46534;-83
2022/02/25 10:39:03;;;;;;;;;2.75;1.00;;;;;8.25;85.43;102073.31;5059027;28;45738;-84
2022/02/25 10:41:28;;;;;;;;;1.25;1.00;;;;;8.40;85.36;102094.50;5077058;28;45569;-82
2022/02/25 10:43:53;;;;;;;;;1.75;1.00;;;;;8.35;84.42;102072.09;5076895;28;45604;-86
2022/02/25 10:46:23;;;;;;;;;2.00;1.00;;;;;8.53;85.07;102084.44;5058723;28;46364;-82
2022/02/25 10:48:48;;;;;;;;;2.00;1.00;;;;;8.46;86.13;102087.34;5077268;28;45412;-84
2022/02/25 10:51:22;;;;;;;;;2.00;1.00;;;;;8.60;86.25;102098.97;5077675;28;45480;-82
2022/02/25 10:53:50;;;;;;;;;2.00;0.00;;;;;8.53;85.73;102076.59;5078248;28;45533;-86
2022/02/25 10:56:19;;;;;;;;;8.00;2.00;;;;;8.65;84.57;102106.59;5077050;28;46055;-83
2022/02/25 10:58:44;;;;;;;;;1.75;1.00;;;;;8.70;84.98;102095.06;5076767;28;45601;-84
2022/02/25 11:01:13;;;;;;;;;0.25;0.00;;;;;8.64;86.34;102078.78;5077654;28;45499;-85
2022/02/25 11:03:42;;;;;;;;;2.00;1.00;;;;;8.59;85.35;102071.13;5087857;28;46217;-83
2022/02/25 11:06:12;;;;;;;;;2.00;1.00;;;;;8.58;85.12;102047.69;5089047;28;46458;-84
2022/02/25 11:08:39;;;;;;;;;3.00;2.00;;;;;8.62;84.36;102055.34;5089693;28;45644;-83
2022/02/25 11:11:05;;;;;;;;;2.00;1.00;;;;;8.85;84.71;102096.25;5087502;28;45506;-84
2022/02/25 11:13:32;;;;;;;;;2.00;1.00;;;;;8.94;84.45;102123.75;5077950;28;45814;-83
2022/02/25 11:15:58;;;;;;;;;2.50;2.00;;;;;8.77;85.06;102077.41;5078179;28;46273;-86
2022/02/25 11:18:24;;;;;;;;;2.75;1.75;;;;;9.04;85.37;102109.41;5076607;28;45632;-83
2022/02/25 11:20:51;;;;;;;;;2.00;1.00;;;;;9.06;84.06;102099.75;5058969;28;45766;-86
2022/02/25 11:23:17;;;;;;;;;2.00;1.50;;;;;8.69;83.80;102022.00;5077486;28;46300;-84
2022/02/25 11:25:45;;;;;;;;;3.50;1.75;;;;;9.16;84.04;102096.69;5077416;28;46167;-87
2022/02/25 11:28:11;;;;;;;;;1.50;1.50;;;;;9.22;82.82;102095.59;5076609;28;45561;-84
2022/02/25 11:34:00;;;;;;;;;1.25;1.00;;;;;9.42;83.38;102110.44;5075989;28;46176;-83
2022/02/25 11:36:42;;;;;;;;;1.00;1.00;;;;;9.31;81.97;102069.03;5076618;28;46416;-85
2022/02/25 11:39:42;;;;;;;;;4.50;3.00;;;;;9.56;82.35;102092.38;5076806;28;45574;-83
2022/02/25 11:42:08;;;;;;;;;2.00;0.00;;;;;9.64;82.05;102106.00;4974727;28;45611;-82
2022/02/25 11:44:34;;;;;;;;;2.00;1.00;;;;;9.64;81.73;102106.84;4975264;28;45794;-86
2022/02/25 11:47:02;;;;;;;;;1.25;0.50;;;;;9.84;81.88;102107.75;4973668;28;46061;-86
2022/02/25 11:49:29;;;;;;;;;1.75;1.00;;;;;9.90;81.19;102097.00;4957843;28;45648;-83
2022/02/25 11:52:00;;;;;;;;;5.25;2.00;;;;;9.99;81.71;102086.09;4974064;28;45783;-83
2022/02/25 11:54:40;;;;;;;;;1.75;0.25;;;;;10.06;81.38;102098.88;4974335;28;45947;-85
2022/02/25 11:57:07;;;;;;;;;1.75;0.75;;;;;10.15;80.74;102096.78;4974057;28;45755;-86
2022/02/25 11:59:32;;;;;;;;;4.00;0.00;;;;;10.21;81.38;102093.88;4973615;28;45853;-86
2022/02/25 12:02:06;;;;;;;;;3.75;2.00;;;;;10.15;80.99;102075.81;4974877;28;45690;-86
2022/02/25 12:04:33;;;;;;;;;1.75;1.00;;;;;10.31;78.94;102098.63;4975643;28;45759;-82
2022/02/25 12:07:00;;;;;;;;;2.75;1.00;;;;;10.35;80.85;102100.22;4974901;28;46020;-84
2022/02/25 12:09:45;;;;;;;;;2.50;1.50;;;;;10.37;80.88;102102.72;4958356;28;45807;-83
2022/02/25 12:12:22;;;;;;;;;2.00;1.00;;;;;10.36;79.57;102099.28;4975241;28;45605;-84
2022/02/25 12:15:17;;;;;;;;;1.75;1.00;;;;;10.36;80.18;102109.78;4974672;28;45851;-81
2022/02/25 12:17:55;;;;;;;;;1.00;1.00;;;;;10.36;78.74;102115.00;4993265;28;45711;-86
2022/02/25 12:20:44;;;;;;;;;3.75;1.00;;;;;10.12;79.78;102082.03;5078074;28;45461;-85
2022/02/25 12:23:15;;;;;;;;;2.00;1.00;;;;;10.34;79.81;102116.00;5080725;28;45701;-87
2022/02/25 12:25:41;;;;;;;;;1.00;0.50;;;;;10.32;79.17;102120.44;5080774;28;46396;-86
2022/02/25 12:28:30;;;;;;;;;2.00;1.25;;;;;10.28;79.67;102137.22;5077727;28;45939;-87
2022/02/25 12:31:02;;;;;;;;;1.75;1.00;;;;;10.24;78.83;102127.81;5081196;27;45574;-85
2022/02/25 12:33:30;;;;;;;;;0.00;0.00;;;;;10.18;78.56;102123.69;5077969;28;45643;-85
2022/02/25 12:36:05;;;;;;;;;1.00;0.00;;;;;10.12;80.40;102123.94;5058844;28;48482;-86
2022/02/25 12:38:36;;;;;;;;;1.25;0.25;;;;;10.10;80.23;102126.59;5045630;28;47329;-85
2022/02/25 12:41:30;;;;;;;;;1.75;1.00;;;;;10.08;80.00;102127.63;5076211;28;45613;-82
2022/02/25 12:47:17;;;;;;;;;1.00;0.50;;;;;10.00;79.71;102133.19;5074752;28;46092;-82
2022/02/25 12:49:43;;;;;;;;;1.75;1.00;;;;;9.88;79.17;102112.75;5079501;28;46396;-84
2022/02/25 12:52:11;;;;;;;;;1.50;1.00;;;;;9.99;79.83;102125.38;5095187;28;45168;-82
2022/02/25 12:54:39;;;;;;;;;1.50;1.00;;;;;9.94;78.25;102120.34;5091560;28;45272;-83
2022/02/25 12:57:07;;;;;;;;;1.50;1.00;;;;;9.95;78.81;102115.97;5072371;28;46923;-82
2022/02/25 13:02:55;;;;;;;;;1.00;1.00;;;;;10.02;77.71;102120.03;5087810;27;45692;-84
2022/02/25 13:05:23;;;;;;;;;1.00;0.25;;;;;10.07;78.66;102116.28;5077709;28;45643;-85
2022/02/25 13:07:58;;;;;;;;;1.25;1.25;;;;;10.05;77.88;102119.88;5079630;28;45719;-84
2022/02/25 13:10:28;;;;;;;;;2.25;2.00;;;;;10.06;76.75;102114.56;5082327;28;45555;-82